Ashton-in-Makerfield, United Kingdom
Current Conditions -  °F | °C
As of 9:20 PM on Friday 19 Dec 2014 (Local Time) from EGGP Reporting Station
Rain Showers Rain Showers  
Wind Chill: 36°   Ceiling: Unl
Heat Index: 45°   Visibility: 6mi
Dew Point: 39°   Wind: 21mph
Humidity: 81%   Direction: 260°W
Pressure: 30.09"   Gusts: NA
Location:  53.48°N, 2.64°W
Report Text: EGGP 192120Z 26018KT 9999 -SHRA FEW011 SCT030 07/04 Q1019
Loading
Personal Weather Stations






























Interactive Weather Map New forecast layout! Learn more

10-Day Weather Forecast

Advertisements
Track Severe Weather on mobile